createdAt,value
2018-08-19T00:00:33.856Z,551.9
2018-08-19T00:01:36.045Z,551.9
2018-08-19T00:02:38.244Z,551.8
2018-08-19T00:03:40.680Z,552.2
2018-08-19T00:04:43.128Z,552.2
2018-08-19T00:05:44.745Z,552.1
2018-08-19T00:06:47.200Z,552
2018-08-19T00:07:49.635Z,551.6
2018-08-19T00:08:51.269Z,552
2018-08-19T00:09:53.434Z,552.2
2018-08-19T00:10:55.625Z,552.4
2018-08-19T00:11:57.496Z,552.1
2018-08-19T00:12:59.650Z,552.1
2018-08-19T00:14:02.122Z,551.8
2018-08-19T00:15:04.558Z,551.7
2018-08-19T00:16:06.436Z,551.8
2018-08-19T00:17:08.630Z,551.9
2018-08-19T00:18:10.557Z,551.5
2018-08-19T00:19:12.729Z,551.6
2018-08-19T00:20:15.170Z,551.9
2018-08-19T00:21:17.351Z,551.7
2018-08-19T00:22:19.798Z,551.4
2018-08-19T00:23:21.436Z,552.1
2018-08-19T00:24:23.590Z,551.8
2018-08-19T00:25:25.742Z,551.7
2018-08-19T00:26:28.186Z,551.6
2018-08-19T00:27:30.638Z,551.3
2018-08-19T00:28:33.078Z,551
2018-08-19T00:29:34.705Z,551.3
2018-08-19T00:30:36.888Z,551.3
2018-08-19T00:31:39.065Z,550.6
2018-08-19T00:32:41.503Z,551.1
2018-08-19T00:33:43.960Z,550.8
2018-08-19T00:34:46.137Z,550.6
2018-08-19T00:35:48.297Z,550.5
2018-08-19T00:36:50.475Z,550.7
2018-08-19T00:37:52.651Z,550.9
2018-08-19T00:38:55.100Z,550.4
2018-08-19T00:39:57.544Z,551
2018-08-19T00:41:00.002Z,551.1
2018-08-19T00:42:02.156Z,551.5
2018-08-19T00:43:04.606Z,551.6
2018-08-19T00:44:06.796Z,551.8
2018-08-19T00:45:09.248Z,551.6
2018-08-19T00:46:11.699Z,551.8
2018-08-19T00:47:13.866Z,551.6
2018-08-19T00:48:16.046Z,551.6
2018-08-19T00:49:18.227Z,551.7
2018-08-19T00:50:20.679Z,551.3
2018-08-19T00:51:23.129Z,551.6
2018-08-19T00:52:25.576Z,551.2
2018-08-19T00:53:27.746Z,551.4
2018-08-19T00:54:30.190Z,551.3
2018-08-19T00:55:32.630Z,550.9
2018-08-19T00:56:34.545Z,551.3
2018-08-19T00:57:36.730Z,551.2
2018-08-19T00:58:39.178Z,550.8
2018-08-19T00:59:41.337Z,550.7
2018-08-19T01:00:43.490Z,550.8
2018-08-19T01:01:45.641Z,550.9
2018-08-19T01:02:47.798Z,551.1
2018-08-19T01:03:50.246Z,550.7
2018-08-19T01:04:51.858Z,551.1
2018-08-19T01:05:53.778Z,550.8
2018-08-19T01:06:55.731Z,550.7
2018-08-19T01:07:57.910Z,550.6
2018-08-19T01:09:00.348Z,551.3
2018-08-19T01:10:02.259Z,550.9
2018-08-19T01:11:04.697Z,551.3
2018-08-19T01:12:07.144Z,551.3
2018-08-19T01:13:09.348Z,551.3
2018-08-19T01:14:11.791Z,551.4
2018-08-19T01:15:13.956Z,551.2
2018-08-19T01:16:16.109Z,550.9
2018-08-19T01:17:18.279Z,551.1
2018-08-19T01:18:20.726Z,550.9
2018-08-19T01:19:23.173Z,550.8
2018-08-19T01:20:25.637Z,551
2018-08-19T01:21:27.544Z,550.5
2018-08-19T01:22:29.731Z,551
2018-08-19T01:23:32.174Z,550.8
2018-08-19T01:24:34.357Z,550.7
2018-08-19T01:25:35.983Z,550.6
2018-08-19T01:26:38.143Z,551
2018-08-19T01:27:40.021Z,551.2
2018-08-19T01:28:42.471Z,551.3
2018-08-19T01:29:44.917Z,551.3
2018-08-19T01:30:47.371Z,551.4
2018-08-19T01:31:49.807Z,551.4
2018-08-19T01:32:51.429Z,551.4
2018-08-19T01:33:53.874Z,551
2018-08-19T01:34:56.325Z,551.3
2018-08-19T01:35:58.789Z,551.3
2018-08-19T01:37:01.238Z,551.3
2018-08-19T01:38:03.419Z,551.4
2018-08-19T01:39:05.319Z,550.8
2018-08-19T01:40:07.503Z,551.4
2018-08-19T01:41:09.677Z,550.8
2018-08-19T01:42:12.129Z,551.1
2018-08-19T01:43:14.310Z,551.3
2018-08-19T01:44:16.197Z,550.8
2018-08-19T01:45:18.376Z,550.7
2018-08-19T01:46:20.292Z,551.3
2018-08-19T01:47:22.471Z,550.8
2018-08-19T01:48:25.122Z,550.9
2018-08-19T01:49:27.576Z,550.8
2018-08-19T01:50:29.762Z,551.3
2018-08-19T01:51:31.947Z,551.3
2018-08-19T01:52:34.117Z,551.1
2018-08-19T01:53:36.565Z,551
2018-08-19T01:54:38.731Z,551.4
2018-08-19T01:55:40.628Z,551.4
2018-08-19T01:56:43.071Z,551.3
2018-08-19T01:57:45.517Z,551.2
2018-08-19T01:58:47.699Z,551.5
2018-08-19T01:59:49.573Z,551.5
2018-08-19T02:00:51.755Z,551.4
2018-08-19T02:01:53.940Z,551.3
2018-08-19T02:02:56.125Z,551.7
2018-08-19T02:03:58.574Z,551.5
2018-08-19T02:05:00.746Z,551.2
2018-08-19T02:06:02.896Z,551.2
2018-08-19T02:07:05.067Z,550.7
2018-08-19T02:08:07.505Z,550.6
2018-08-19T02:09:09.707Z,551
2018-08-19T02:10:11.889Z,551.3
2018-08-19T02:11:14.061Z,551.4
2018-08-19T02:12:16.513Z,551.1
2018-08-19T02:13:18.157Z,551.1
2018-08-19T02:14:20.336Z,551.4
2018-08-19T02:15:22.530Z,551.3
2018-08-19T02:16:24.969Z,551.2
2018-08-19T02:17:26.610Z,551.1
2018-08-19T02:18:29.061Z,550.7
2018-08-19T02:19:30.966Z,551.1
2018-08-19T02:20:33.676Z,551.2
2018-08-19T02:21:35.898Z,551.5
2018-08-19T02:22:38.340Z,551.7
2018-08-19T02:23:40.229Z,551.3
2018-08-19T02:24:42.400Z,551.6
2018-08-19T02:25:44.580Z,551.9
2018-08-19T02:26:46.768Z,551.6
2018-08-19T02:27:49.212Z,551.8
2018-08-19T02:28:51.118Z,551.8
2018-08-19T02:29:53.029Z,551.8
2018-08-19T02:30:55.178Z,551.7
2018-08-19T02:31:57.616Z,552
2018-08-19T02:32:59.529Z,552.1
2018-08-19T02:34:01.429Z,552.1
2018-08-19T02:35:03.877Z,551.8
2018-08-19T02:36:06.060Z,552.1
2018-08-19T02:37:08.505Z,552.1
2018-08-19T02:38:10.409Z,552
2018-08-19T02:39:12.883Z,552.2
2018-08-19T02:40:15.067Z,552
2018-08-19T02:41:17.251Z,552.3
2018-08-19T02:42:19.439Z,552.3
2018-08-19T02:43:21.891Z,552.2
2018-08-19T02:44:24.057Z,552.2
2018-08-19T02:45:25.957Z,552.8
2018-08-19T02:46:28.400Z,552.4
2018-08-19T02:47:30.571Z,552.5
2018-08-19T02:48:32.734Z,552.5
2018-08-19T02:49:35.187Z,552.7
2018-08-19T02:50:37.355Z,553.1
2018-08-19T02:51:39.525Z,553.1
2018-08-19T02:52:41.694Z,553.1
2018-08-19T02:53:43.871Z,553.2
2018-08-19T02:54:46.312Z,553.2
2018-08-19T02:55:48.767Z,553.4
2018-08-19T02:56:51.230Z,553.2
2018-08-19T02:57:53.681Z,553.1
2018-08-19T02:58:55.597Z,553.3
2018-08-19T02:59:58.036Z,553.2
2018-08-19T03:01:00.497Z,552.7
2018-08-19T03:02:02.945Z,553.1
2018-08-19T03:03:05.116Z,552.7
2018-08-19T03:04:07.563Z,552.8
2018-08-19T03:05:10.000Z,553
2018-08-19T03:06:11.618Z,552.8
2018-08-19T03:07:14.074Z,552.8
2018-08-19T03:08:16.520Z,552.7
2018-08-19T03:09:18.966Z,552.9
2018-08-19T03:10:20.858Z,553.1
2018-08-19T03:11:23.058Z,553.1
2018-08-19T03:12:24.672Z,553.2
2018-08-19T03:13:26.848Z,553.3
2018-08-19T03:14:29.027Z,552.9
2018-08-19T03:15:31.206Z,553.4
2018-08-19T03:16:33.657Z,553
2018-08-19T03:17:36.102Z,553
2018-08-19T03:18:38.547Z,552.9
2018-08-19T03:19:40.477Z,553.2
2018-08-19T03:20:42.664Z,552.9
2018-08-19T03:21:44.831Z,553.1
2018-08-19T03:22:47.271Z,553.1
2018-08-19T03:23:49.163Z,553.5
2018-08-19T03:24:51.067Z,553.6
2018-08-19T03:25:53.544Z,552.9
2018-08-19T03:26:55.989Z,553.4
2018-08-19T03:27:58.177Z,553.2
2018-08-19T03:29:00.356Z,552.8
2018-08-19T03:30:02.521Z,552.5
2018-08-19T03:31:04.756Z,552.9
2018-08-19T03:32:06.643Z,553.4
2018-08-19T03:33:08.800Z,553.1
2018-08-19T03:34:11.241Z,553
2018-08-19T03:35:13.779Z,553.2
2018-08-19T03:36:16.230Z,553.4
2018-08-19T03:37:18.103Z,553.2
2018-08-19T03:38:20.554Z,553.1
2018-08-19T03:39:22.998Z,553.6
2018-08-19T03:40:25.448Z,553.7
2018-08-19T03:41:27.893Z,553
2018-08-19T03:42:30.094Z,553.1
2018-08-19T03:43:32.541Z,553.1
2018-08-19T03:44:34.716Z,553
2018-08-19T03:45:36.635Z,553.3
2018-08-19T03:46:39.090Z,553.4
2018-08-19T03:47:41.253Z,553.1
2018-08-19T03:48:43.443Z,552.9
2018-08-19T03:49:45.880Z,552.6
2018-08-19T03:50:48.317Z,552.9
2018-08-19T03:51:50.764Z,552.6
2018-08-19T03:52:52.930Z,552.7
2018-08-19T03:53:55.100Z,553.2
2018-08-19T03:54:57.544Z,553.1
2018-08-19T03:55:59.458Z,552.9
2018-08-19T03:57:01.635Z,552.8
2018-08-19T03:58:03.549Z,552.5
2018-08-19T03:59:05.708Z,552.8
2018-08-19T04:00:07.892Z,552.7
2018-08-19T04:01:10.060Z,552.9
2018-08-19T04:02:12.283Z,552.6
2018-08-19T04:03:14.739Z,552.2
2018-08-19T04:04:17.179Z,552.5
2018-08-19T04:05:19.397Z,552.3
2018-08-19T04:06:21.847Z,552.6
2018-08-19T04:07:24.028Z,552.5
2018-08-19T04:08:26.478Z,552.7
2018-08-19T04:09:28.925Z,552.2
2018-08-19T04:10:31.381Z,552.3
2018-08-19T04:11:33.818Z,551.7
2018-08-19T04:12:36.018Z,552
2018-08-19T04:13:38.188Z,552
2018-08-19T04:14:40.372Z,552
2018-08-19T04:15:42.823Z,552
2018-08-19T04:16:45.283Z,551.7
2018-08-19T04:17:47.726Z,551.7
2018-08-19T04:18:49.883Z,551.8
2018-08-19T04:19:52.071Z,551.7
2018-08-19T04:20:54.506Z,551.5
2018-08-19T04:21:56.425Z,551.1
2018-08-19T04:22:58.867Z,551.1
2018-08-19T04:24:01.302Z,551.4
2018-08-19T04:25:03.490Z,551.2
2018-08-19T04:26:05.688Z,551.2
2018-08-19T04:27:07.868Z,551.5
2018-08-19T04:28:09.779Z,551.4
2018-08-19T04:29:11.659Z,551.8
2018-08-19T04:30:13.801Z,551.6
2018-08-19T04:31:15.971Z,551.7
2018-08-19T04:32:17.865Z,551.9
2018-08-19T04:33:19.768Z,552
2018-08-19T04:34:22.216Z,552.1
2018-08-19T04:35:24.115Z,551.6
2018-08-19T04:36:25.472Z,551.8
2018-08-19T04:37:27.784Z,551.5
2018-08-19T04:38:29.974Z,551.5
2018-08-19T04:39:32.417Z,551.5
2018-08-19T04:40:34.854Z,551.3
2018-08-19T04:41:37.027Z,551.6
2018-08-19T04:42:39.498Z,551.9
2018-08-19T04:43:41.942Z,551.6
2018-08-19T04:44:44.428Z,551.8
2018-08-19T04:45:46.887Z,551.8
2018-08-19T04:46:49.330Z,552
2018-08-19T04:47:51.490Z,551.8
2018-08-19T04:48:53.946Z,551.8
2018-08-19T04:49:56.134Z,551.8
2018-08-19T04:50:58.320Z,551.7
2018-08-19T04:52:00.245Z,551.5
2018-08-19T04:53:02.400Z,551.5
2018-08-19T04:54:04.862Z,551.4
2018-08-19T04:55:07.316Z,551.3
2018-08-19T04:56:09.786Z,551.5
2018-08-19T04:57:11.963Z,551.4
2018-08-19T04:58:14.133Z,551.3
2018-08-19T04:59:16.046Z,551.4
2018-08-19T05:00:17.955Z,551.3
2018-08-19T05:01:19.844Z,551.3
2018-08-19T05:02:23.524Z,551.1
2018-08-19T05:03:25.239Z,550.9
2018-08-19T05:04:27.687Z,550.7
2018-08-19T05:05:30.142Z,551.2
2018-08-19T05:06:32.308Z,550.7
2018-08-19T05:07:34.476Z,551
2018-08-19T05:08:36.649Z,550.6
2018-08-19T05:09:38.799Z,550.2
2018-08-19T05:10:40.402Z,550.2
2018-08-19T05:11:42.016Z,550.3
2018-08-19T05:12:44.472Z,550.1
2018-08-19T05:13:46.939Z,550.1
2018-08-19T05:14:49.387Z,550.3
2018-08-19T05:15:51.824Z,550.3
2018-08-19T05:16:53.542Z,550.4
2018-08-19T05:17:55.439Z,550.4
2018-08-19T05:18:57.877Z,550.5
2018-08-19T05:20:00.069Z,550.6
2018-08-19T05:21:02.526Z,550.2
2018-08-19T05:22:04.685Z,550.4
2018-08-19T05:23:06.853Z,550.4
2018-08-19T05:24:09.021Z,550.4
2018-08-19T05:25:11.463Z,550.4
2018-08-19T05:26:13.910Z,550.2
2018-08-19T05:27:16.075Z,550.2
2018-08-19T05:28:18.160Z,550.1
2018-08-19T05:29:20.321Z,549.9
2018-08-19T05:30:22.512Z,549.6
2018-08-19T05:31:24.764Z,549.6
2018-08-19T05:32:27.264Z,549.4
2018-08-19T05:33:29.718Z,549.1
2018-08-19T05:34:31.897Z,549.7
2018-08-19T05:35:34.338Z,549.5
2018-08-19T05:36:36.792Z,549.5
2018-08-19T05:37:39.241Z,549.5
2018-08-19T05:38:41.433Z,549.7
2018-08-19T05:39:43.615Z,549.6
2018-08-19T05:40:45.780Z,549.7
2018-08-19T05:41:47.959Z,549.6
2018-08-19T05:42:49.859Z,549.6
2018-08-19T05:43:52.035Z,549.8
2018-08-19T05:44:54.217Z,549.9
2018-08-19T05:45:56.668Z,549.5
2018-08-19T05:46:59.153Z,549.6
2018-08-19T05:48:01.341Z,549.7
2018-08-19T05:49:03.803Z,549.2
2018-08-19T05:50:05.971Z,549.3
2018-08-19T05:51:07.847Z,549.1
2018-08-19T05:52:10.298Z,548.8
2018-08-19T05:53:12.743Z,548.7
2018-08-19T05:54:14.348Z,548.8
2018-08-19T05:55:16.814Z,548.8
2018-08-19T05:56:19.279Z,548.6
2018-08-19T05:57:21.722Z,548.6
2018-08-19T05:58:23.897Z,548.6
2018-08-19T05:59:26.080Z,548.4
2018-08-19T06:00:27.683Z,548.2
2018-08-19T06:01:29.855Z,548.3
2018-08-19T06:02:32.043Z,548.2
2018-08-19T06:03:34.216Z,548.1
2018-08-19T06:04:36.704Z,548.6
2018-08-19T06:05:38.867Z,548.1
2018-08-19T06:06:40.797Z,547.9
2018-08-19T06:07:44.074Z,547.9
2018-08-19T06:08:46.587Z,547.9
2018-08-19T06:09:49.036Z,548.1
2018-08-19T06:10:50.947Z,547.8
2018-08-19T06:11:53.117Z,548.1
2018-08-19T06:12:55.292Z,548.2
2018-08-19T06:13:57.477Z,547.8
2018-08-19T06:14:59.386Z,548.2
2018-08-19T06:16:02.033Z,548.1
2018-08-19T06:17:04.545Z,548.3
2018-08-19T06:18:07.000Z,548
2018-08-19T06:19:09.467Z,548.2
2018-08-19T06:20:11.645Z,547.8
2018-08-19T06:21:14.086Z,547.8
2018-08-19T06:22:16.538Z,547.8
2018-08-19T06:23:18.718Z,547.7
2018-08-19T06:24:20.904Z,547.6
2018-08-19T06:25:23.087Z,547.8
2018-08-19T06:26:25.252Z,547.8
2018-08-19T06:27:27.419Z,547.9
2018-08-19T06:28:29.301Z,547.9
2018-08-19T06:29:31.743Z,548.1
2018-08-19T06:30:34.195Z,547.6
2018-08-19T06:31:36.375Z,547.8
2018-08-19T06:32:38.847Z,547.6
2018-08-19T06:33:41.019Z,548
2018-08-19T06:34:43.620Z,547.8
2018-08-19T06:35:45.484Z,547.7
2018-08-19T06:36:47.943Z,547.9
2018-08-19T06:37:50.397Z,547.9
2018-08-19T06:38:52.313Z,547.8
2018-08-19T06:39:54.750Z,547.5
2018-08-19T06:40:57.202Z,547.7
2018-08-19T06:41:59.653Z,547.8
2018-08-19T06:43:01.968Z,547.8
2018-08-19T06:44:03.869Z,547.8
2018-08-19T06:45:06.066Z,547.9
2018-08-19T06:46:08.234Z,548.1
2018-08-19T06:47:10.675Z,548.1
2018-08-19T06:48:12.859Z,548.2
2018-08-19T06:49:15.037Z,548.2
2018-08-19T06:50:17.232Z,548.2
2018-08-19T06:51:20.188Z,548
2018-08-19T06:52:22.953Z,548.1
2018-08-19T06:53:24.854Z,548
2018-08-19T06:54:26.817Z,548.2
2018-08-19T06:55:29.324Z,548.2
2018-08-19T06:56:31.782Z,548.3
2018-08-19T06:57:33.924Z,548.4
2018-08-19T06:58:36.079Z,548.1
2018-08-19T06:59:38.264Z,548.1
2018-08-19T07:00:40.722Z,548
2018-08-19T07:01:43.321Z,548.4
2018-08-19T07:02:46.118Z,548.3
2018-08-19T07:03:48.451Z,548.3
2018-08-19T07:04:50.941Z,548
2018-08-19T07:05:53.122Z,548.3
2018-08-19T07:06:55.616Z,548
2018-08-19T07:07:58.125Z,548.4
2018-08-19T07:09:00.625Z,548.5
2018-08-19T07:10:02.524Z,548.2
2018-08-19T07:11:05.043Z,548.4
2018-08-19T07:12:07.532Z,548.4
2018-08-19T07:13:09.990Z,548.4
2018-08-19T07:14:11.887Z,548.4
2018-08-19T07:15:14.061Z,548.4
2018-08-19T07:16:16.239Z,548.3
2018-08-19T07:17:18.417Z,548.3
2018-08-19T07:18:20.604Z,548.4
2018-08-19T07:19:22.771Z,548.5
2018-08-19T07:20:24.952Z,548.2
2018-08-19T07:21:27.418Z,548.3
2018-08-19T07:22:29.586Z,548.5
2018-08-19T07:23:32.052Z,548.4
2018-08-19T07:24:34.209Z,548.2
2018-08-19T07:25:36.384Z,548.3
2018-08-19T07:26:38.832Z,548.3
2018-08-19T07:27:41.277Z,548.5
2018-08-19T07:28:43.461Z,548.3
2018-08-19T07:29:46.489Z,548.4
2018-08-19T07:30:49.027Z,547.9
2018-08-19T07:31:50.947Z,548
2018-08-19T07:32:53.412Z,548.2
2018-08-19T07:33:55.299Z,548.2
2018-08-19T07:34:57.747Z,548.5
2018-08-19T07:35:59.899Z,548.3
2018-08-19T07:37:02.957Z,548.4
2018-08-19T07:38:05.007Z,548.1
2018-08-19T07:39:07.175Z,548.4
2018-08-19T07:40:09.356Z,548.4
2018-08-19T07:41:11.824Z,548.4
2018-08-19T07:42:14.288Z,548.3
2018-08-19T07:43:16.206Z,548.6
2018-08-19T07:44:18.651Z,548.3
2018-08-19T07:45:20.835Z,548.1
2018-08-19T07:46:23.000Z,548.2
2018-08-19T07:47:24.906Z,548.2
2018-08-19T07:48:26.797Z,548.2
2018-08-19T07:49:28.978Z,548.4
2018-08-19T07:50:31.439Z,548.4
2018-08-19T07:51:33.984Z,548.4
2018-08-19T07:52:36.162Z,548.5
2018-08-19T07:53:38.604Z,548.8
2018-08-19T07:54:40.487Z,548.7
2018-08-19T07:55:42.940Z,548.4
2018-08-19T07:56:45.117Z,548.9
2018-08-19T07:57:47.560Z,548.5
2018-08-19T07:58:50.014Z,548.8
2018-08-19T07:59:52.197Z,548.8
2018-08-19T08:00:54.640Z,548.6
2018-08-19T08:01:57.080Z,548.5
2018-08-19T08:02:59.260Z,548.4
2018-08-19T08:04:01.695Z,548.5
2018-08-19T08:05:03.578Z,548.6
2018-08-19T08:06:06.020Z,548.5
2018-08-19T08:07:07.888Z,548.6
2018-08-19T08:08:10.075Z,548.5
2018-08-19T08:09:11.988Z,548.2
2018-08-19T08:10:13.902Z,548.3
2018-08-19T08:11:16.339Z,548.1
2018-08-19T08:12:18.800Z,547.9
2018-08-19T08:13:21.252Z,548.1
2018-08-19T08:14:23.430Z,548.4
2018-08-19T08:15:25.602Z,548.3
2018-08-19T08:16:28.066Z,548.3
2018-08-19T08:17:29.968Z,548.2
2018-08-19T08:18:32.413Z,548.1
2018-08-19T08:19:34.600Z,547.5
2018-08-19T08:20:36.779Z,547.8
2018-08-19T08:21:39.253Z,547.8
2018-08-19T08:22:41.633Z,548.1
2018-08-19T08:23:44.096Z,547.9
2018-08-19T08:24:45.988Z,547.8
2018-08-19T08:25:48.149Z,547.6
2018-08-19T08:26:50.728Z,548
2018-08-19T08:27:53.182Z,547.9
2018-08-19T08:28:55.070Z,547.6
2018-08-19T08:29:56.984Z,547.8
2018-08-19T08:30:59.719Z,547.8
2018-08-19T08:32:02.380Z,548.2
2018-08-19T08:33:04.554Z,548.5
2018-08-19T08:34:07.005Z,548.2
2018-08-19T08:35:09.466Z,548.3
2018-08-19T08:36:11.642Z,548.4
2018-08-19T08:37:13.548Z,548.3
2018-08-19T08:38:15.772Z,548.7
2018-08-19T08:39:17.967Z,548.2
2018-08-19T08:40:20.145Z,548.6
2018-08-19T08:41:22.331Z,548.7
2018-08-19T08:42:24.779Z,548.8
2018-08-19T08:43:27.029Z,548.7
2018-08-19T08:44:29.483Z,548.8
2018-08-19T08:45:31.940Z,548.8
2018-08-19T08:46:34.385Z,548.8
2018-08-19T08:47:37.197Z,549.1
2018-08-19T08:48:39.802Z,548.9
2018-08-19T08:49:42.248Z,548.9
2018-08-19T08:50:44.687Z,549.1
2018-08-19T08:51:47.429Z,549.5
2018-08-19T08:52:49.340Z,549.3
2018-08-19T08:53:51.514Z,549.6
2018-08-19T08:54:53.704Z,550
2018-08-19T08:55:56.171Z,550
2018-08-19T08:56:58.357Z,549.7
2018-08-19T08:58:00.502Z,550
2018-08-19T08:59:02.681Z,550.1
2018-08-19T09:00:05.141Z,550
2018-08-19T09:01:07.047Z,550.2
2018-08-19T09:02:09.233Z,549.9
2018-08-19T09:03:11.565Z,550.1
2018-08-19T09:04:13.735Z,550
2018-08-19T09:05:16.176Z,549.8
2018-08-19T09:06:18.380Z,550
2018-08-19T09:07:20.558Z,550.3
2018-08-19T09:08:22.743Z,550.5
2018-08-19T09:09:24.933Z,550.5
2018-08-19T09:10:27.110Z,550.2
2018-08-19T09:11:29.566Z,550.6
2018-08-19T09:12:32.021Z,550.3
2018-08-19T09:13:34.206Z,550.7
2018-08-19T09:14:36.400Z,550.6
2018-08-19T09:15:38.840Z,550.3
2018-08-19T09:16:40.989Z,550.3
2018-08-19T09:17:43.143Z,550.5
2018-08-19T09:18:45.597Z,550.6
2018-08-19T09:19:47.787Z,550.6
2018-08-19T09:20:49.934Z,550.6
2018-08-19T09:21:52.118Z,550.6
2018-08-19T09:22:54.569Z,550.9
2018-08-19T09:23:57.027Z,550.8
2018-08-19T09:24:58.919Z,550.7
2018-08-19T09:26:01.368Z,550.6
2018-08-19T09:27:03.855Z,550.6
2018-08-19T09:28:05.759Z,551
2018-08-19T09:29:07.927Z,551.1
2018-08-19T09:30:10.376Z,551.4
2018-08-19T09:31:12.567Z,551.3
2018-08-19T09:32:15.013Z,551.3
2018-08-19T09:33:17.205Z,551.1
2018-08-19T09:34:19.383Z,551.3
2018-08-19T09:35:21.269Z,551.3
2018-08-19T09:36:23.716Z,551.6
2018-08-19T09:37:25.910Z,551.5
2018-08-19T09:38:27.802Z,551.8
2018-08-19T09:39:29.989Z,551.7
2018-08-19T09:40:32.448Z,551.6
2018-08-19T09:41:34.637Z,551.7
2018-08-19T09:42:36.838Z,551.6
2018-08-19T09:43:39.014Z,551.7
2018-08-19T09:44:41.182Z,551.8
2018-08-19T09:45:43.364Z,551.8
2018-08-19T09:46:45.523Z,551.9
2018-08-19T09:47:48.853Z,551.8
2018-08-19T09:48:50.786Z,551.5
2018-08-19T09:49:53.475Z,552
2018-08-19T09:50:55.948Z,551.7
2018-08-19T09:51:57.872Z,551.8
2018-08-19T09:53:00.316Z,552
2018-08-19T09:54:02.584Z,552.6
2018-08-19T09:55:05.038Z,552.4
2018-08-19T09:56:07.217Z,552.5
2018-08-19T09:57:09.111Z,552.3
2018-08-19T09:58:11.004Z,552.9
2018-08-19T09:59:13.459Z,552.6
2018-08-19T10:00:15.923Z,552.7
2018-08-19T10:01:18.388Z,552.6
2018-08-19T10:02:20.572Z,553
2018-08-19T10:03:22.491Z,552.8
2018-08-19T10:04:24.934Z,553.1
2018-08-19T10:05:27.394Z,553.4
2018-08-19T10:06:29.579Z,553.4
2018-08-19T10:07:32.554Z,553.4
2018-08-19T10:08:35.024Z,553.1
2018-08-19T10:09:36.668Z,553.1
2018-08-19T10:10:38.853Z,553.2
2018-08-19T10:11:41.312Z,553.5
2018-08-19T10:12:43.747Z,553.3
2018-08-19T10:13:46.446Z,553.4
2018-08-19T10:14:48.418Z,553.6
2018-08-19T10:15:50.586Z,553.9
2018-08-19T10:16:52.773Z,553.7
2018-08-19T10:17:54.980Z,554.1
2018-08-19T10:18:57.167Z,554.2
2018-08-19T10:19:59.612Z,554.2
2018-08-19T10:21:02.075Z,554.2
2018-08-19T10:22:04.280Z,554.5
2018-08-19T10:23:06.461Z,554.4
2018-08-19T10:24:08.363Z,554.8
2018-08-19T10:25:10.566Z,554.7
2018-08-19T10:26:13.012Z,555
2018-08-19T10:27:15.448Z,554.4
2018-08-19T10:28:17.342Z,554.8
2018-08-19T10:29:19.520Z,554.6
2018-08-19T10:30:21.696Z,554.7
2018-08-19T10:31:24.680Z,554.9
2018-08-19T10:32:26.927Z,555
2018-08-19T10:33:28.834Z,555.2
2018-08-19T10:34:30.726Z,555.2
2018-08-19T10:35:33.168Z,555.3
2018-08-19T10:36:35.624Z,555.7
2018-08-19T10:37:38.084Z,555.5
2018-08-19T10:38:40.529Z,555.5
2018-08-19T10:39:42.987Z,555.6
2018-08-19T10:40:45.172Z,555.4
2018-08-19T10:41:47.338Z,555.4
2018-08-19T10:42:49.520Z,555.4
2018-08-19T10:43:51.798Z,555.6
2018-08-19T10:44:53.697Z,555.1
2018-08-19T10:45:55.871Z,555.5
2018-08-19T10:46:58.043Z,555.3
2018-08-19T10:48:00.247Z,555.4
2018-08-19T10:49:02.136Z,555.6
2018-08-19T10:50:04.595Z,555.6
2018-08-19T10:51:06.768Z,556
2018-08-19T10:52:08.947Z,555.7
2018-08-19T10:53:11.136Z,555.7
2018-08-19T10:54:13.011Z,555.4
2018-08-19T10:55:15.196Z,555.9
2018-08-19T10:56:17.657Z,555.4
2018-08-19T10:57:19.841Z,555.7
2018-08-19T10:58:22.146Z,555.7
2018-08-19T10:59:24.575Z,555.8
2018-08-19T11:00:27.026Z,555.8
2018-08-19T11:01:29.205Z,556.4
2018-08-19T11:02:31.657Z,556.7
2018-08-19T11:03:33.821Z,557
2018-08-19T11:04:35.999Z,557.3
2018-08-19T11:05:38.458Z,557.1
2018-08-19T11:06:40.653Z,557.1
2018-08-19T11:07:42.903Z,556.9
2018-08-19T11:08:45.339Z,557.3
2018-08-19T11:09:47.530Z,557.3
2018-08-19T11:10:49.726Z,556.9
2018-08-19T11:11:51.909Z,557.4
2018-08-19T11:12:54.355Z,557.3
2018-08-19T11:13:56.545Z,557.5
2018-08-19T11:14:58.990Z,557.9
2018-08-19T11:16:01.172Z,557.8
2018-08-19T11:17:03.347Z,557.1
2018-08-19T11:18:05.249Z,557.5
2018-08-19T11:19:07.695Z,557.5
2018-08-19T11:20:09.648Z,557.9
2018-08-19T11:21:12.330Z,557.7
2018-08-19T11:22:14.777Z,557.7
2018-08-19T11:23:17.219Z,557.6
2018-08-19T11:24:19.093Z,557.9
2018-08-19T11:25:21.257Z,558
2018-08-19T11:26:23.722Z,557.6
2018-08-19T11:27:26.309Z,558.1
2018-08-19T11:28:28.749Z,557.6
2018-08-19T11:29:31.202Z,557.9
2018-08-19T11:30:33.114Z,558.1
2018-08-19T11:31:36.513Z,558.1
2018-08-19T11:32:38.970Z,558.3
2018-08-19T11:33:40.853Z,558.4
2018-08-19T11:34:43.314Z,558.4
2018-08-19T11:35:45.497Z,558.4
2018-08-19T11:36:47.676Z,558.6
2018-08-19T11:37:49.847Z,558.8
2018-08-19T11:38:52.340Z,558.6
2018-08-19T11:39:54.517Z,558.9
2018-08-19T11:40:56.964Z,558.7
2018-08-19T11:41:58.854Z,558.6
2018-08-19T11:43:01.298Z,558.5
2018-08-19T11:44:03.198Z,558.5
2018-08-19T11:45:05.640Z,559
2018-08-19T11:46:07.556Z,559.3
2018-08-19T11:47:10.004Z,559.5
2018-08-19T11:48:12.180Z,560.1
2018-08-19T11:49:14.325Z,559.9
2018-08-19T11:50:16.790Z,560.1
2018-08-19T11:51:18.687Z,560.4
2018-08-19T11:52:20.604Z,560.4
2018-08-19T11:53:23.043Z,560.4
2018-08-19T11:54:25.502Z,560.6
2018-08-19T11:55:28.509Z,560.4
2018-08-19T11:56:30.971Z,560.5
2018-08-19T11:57:33.409Z,560.4
2018-08-19T11:58:35.859Z,560.9
2018-08-19T11:59:38.021Z,561
2018-08-19T12:00:40.507Z,560.5
2018-08-19T12:01:42.680Z,560.4
2018-08-19T12:02:44.849Z,560.5
2018-08-19T12:03:47.277Z,560.9
2018-08-19T12:04:49.172Z,561.3
2018-08-19T12:05:51.624Z,561.1
2018-08-19T12:06:53.796Z,560.6
2018-08-19T12:07:55.981Z,560.9
2018-08-19T12:08:58.450Z,561
2018-08-19T12:10:00.890Z,561
2018-08-19T12:11:03.348Z,561.5
2018-08-19T12:12:05.793Z,561.6
2018-08-19T12:13:07.687Z,560.9
2018-08-19T12:14:10.157Z,561.2
2018-08-19T12:15:11.787Z,561.7
2018-08-19T12:16:14.003Z,561.6
2018-08-19T12:17:16.169Z,561.9
2018-08-19T12:18:17.777Z,561.5
2018-08-19T12:19:19.957Z,561.6
2018-08-19T12:20:22.155Z,561.8
2018-08-19T12:21:24.322Z,562.2
2018-08-19T12:22:26.496Z,562.1
2018-08-19T12:23:28.947Z,562.2
2018-08-19T12:24:31.412Z,562.1
2018-08-19T12:25:33.311Z,562.3
2018-08-19T12:26:35.764Z,562.6
2018-08-19T12:27:38.707Z,562.2
2018-08-19T12:28:41.187Z,562.4
2018-08-19T12:29:43.629Z,562.4
2018-08-19T12:30:46.089Z,562.4
2018-08-19T12:31:48.270Z,562.2
2018-08-19T12:32:50.454Z,562.9
2018-08-19T12:33:52.614Z,562.7
2018-08-19T12:34:54.785Z,562.8
2018-08-19T12:35:57.009Z,563
2018-08-19T12:36:59.332Z,562.8
2018-08-19T12:38:01.789Z,563.2
2018-08-19T12:39:03.968Z,563.1
2018-08-19T12:40:06.143Z,563.5
2018-08-19T12:41:08.586Z,563.2
2018-08-19T12:42:11.032Z,563.3
2018-08-19T12:43:12.363Z,563.8
2018-08-19T12:44:14.807Z,563.6
2018-08-19T12:45:17.307Z,563.8
2018-08-19T12:46:19.543Z,563.4
2018-08-19T12:47:21.706Z,563.6
2018-08-19T12:48:23.331Z,563.8
2018-08-19T12:49:25.779Z,563.6
2018-08-19T12:50:27.683Z,564.1
2018-08-19T12:51:30.583Z,564.8
2018-08-19T12:52:32.418Z,564.7
2018-08-19T12:53:34.310Z,564.8
2018-08-19T12:54:36.756Z,564.7
2018-08-19T12:55:38.630Z,564.4
2018-08-19T12:56:40.539Z,564.7
2018-08-19T12:57:42.999Z,564.4
2018-08-19T12:58:45.495Z,564.8
2018-08-19T12:59:47.952Z,565
2018-08-19T13:00:49.829Z,565.2
2018-08-19T13:01:52.011Z,565
2018-08-19T13:02:54.511Z,565.1
2018-08-19T13:03:56.686Z,565
2018-08-19T13:04:59.144Z,565.7
2018-08-19T13:06:01.348Z,565.7
2018-08-19T13:07:03.237Z,566.1
2018-08-19T13:08:05.868Z,565.7
2018-08-19T13:09:08.393Z,565.6
2018-08-19T13:10:10.568Z,566.2
2018-08-19T13:11:12.745Z,566.2
2018-08-19T13:12:15.191Z,566
2018-08-19T13:13:17.367Z,566.1
2018-08-19T13:14:19.283Z,566.1
2018-08-19T13:15:21.753Z,565.7
2018-08-19T13:16:24.198Z,566.3
2018-08-19T13:17:26.095Z,566.4
2018-08-19T13:18:28.251Z,566.4
2018-08-19T13:19:30.709Z,566.6
2018-08-19T13:20:33.153Z,566.6
2018-08-19T13:21:35.609Z,567.2
2018-08-19T13:22:38.004Z,566.9
2018-08-19T13:23:40.456Z,567.4
2018-08-19T13:24:42.629Z,567.2
2018-08-19T13:25:44.279Z,567